Time;durP1;ratioP1;P1;durP2;ratioP2;P2;SDS_P1;SDS_P2;PMS_P1;PMS_P2;Temp;Humidity;BMP_temperature;BMP_pressure;BME280_temperature;BME280_humidity;BME280_pressure;Samples;Min_cycle;Max_cycle;Signal;HPM_P1;HPM_P2
2022/05/13 00:01:25;;;;;;;9.55;1.33;;;11.20;77.40;;;;;;5053091;28;20041;-82
2022/05/13 00:03:53;;;;;;;6.65;1.20;;;11.30;77.40;;;;;;5046911;28;20626;-82
2022/05/13 00:06:21;;;;;;;5.28;1.30;;;11.20;77.50;;;;;;5024995;28;20048;-82
2022/05/13 00:08:48;;;;;;;7.47;1.45;;;11.20;77.50;;;;;;5046046;28;20041;-81
2022/05/13 00:11:16;;;;;;;10.50;1.55;;;11.20;77.50;;;;;;5044897;28;20037;-82
2022/05/13 00:13:44;;;;;;;9.95;1.73;;;11.20;77.50;;;;;;5031005;28;20033;-82
2022/05/13 00:16:12;;;;;;;8.57;1.60;;;11.30;77.70;;;;;;5045708;28;20048;-82
2022/05/13 00:18:40;;;;;;;11.07;1.40;;;11.30;77.80;;;;;;5049468;28;20037;-82
2022/05/13 00:21:08;;;;;;;13.23;1.80;;;11.30;77.80;;;;;;5008976;28;20053;-81
2022/05/13 00:23:36;;;;;;;9.93;1.60;;;11.30;77.80;;;;;;5040171;28;20049;-81
2022/05/13 00:26:03;;;;;;;9.52;2.15;;;11.30;77.80;;;;;;5046634;28;20050;-81
2022/05/13 00:28:31;;;;;;;10.52;1.70;;;11.20;77.80;;;;;;5048900;28;20494;-81
2022/05/13 00:31:01;;;;;;;12.82;1.73;;;11.20;78.00;;;;;;5049328;28;20064;-81
2022/05/13 00:33:29;;;;;;;6.50;1.33;;;11.20;78.00;;;;;;5052283;28;20048;-82
2022/05/13 00:35:57;;;;;;;10.40;1.73;;;11.20;78.00;;;;;;5053266;28;20053;-81
2022/05/13 00:38:25;;;;;;;9.10;1.60;;;11.20;78.00;;;;;;5050198;28;20048;-81
2022/05/13 00:40:53;;;;;;;14.20;2.05;;;11.10;78.10;;;;;;5027269;28;20057;-79
2022/05/13 00:43:47;;;;;;;8.07;1.50;;;11.10;78.20;;;;;;5033917;28;20048;-81
2022/05/13 00:46:15;;;;;;;11.48;1.75;;;11.10;78.30;;;;;;5050252;28;20048;-81
2022/05/13 00:48:43;;;;;;;10.05;1.30;;;11.00;78.40;;;;;;5013305;28;20427;-81
2022/05/13 00:51:16;;;;;;;7.55;1.63;;;10.90;78.50;;;;;;5052351;28;20048;-82
2022/05/13 00:53:46;;;;;;;13.38;2.05;;;10.90;78.70;;;;;;5049908;28;20049;-81
2022/05/13 00:56:15;;;;;;;12.07;1.92;;;10.80;79.00;;;;;;5048095;28;20048;-81
2022/05/13 00:58:46;;;;;;;4.97;1.05;;;10.80;79.20;;;;;;5049259;28;20045;-81
2022/05/13 01:01:14;;;;;;;10.38;1.92;;;10.80;79.40;;;;;;5017937;28;20119;-80
2022/05/13 01:03:41;;;;;;;11.98;2.03;;;10.80;79.40;;;;;;5039966;28;20045;-81
2022/05/13 01:06:13;;;;;;;6.95;1.35;;;10.70;79.50;;;;;;5019202;28;20414;-81
2022/05/13 01:08:40;;;;;;;15.93;2.40;;;10.80;79.60;;;;;;5030295;28;20056;-82
2022/05/13 01:11:13;;;;;;;15.52;2.40;;;10.80;79.40;;;;;;5051648;28;20041;-80
2022/05/13 01:13:48;;;;;;;17.73;2.60;;;10.70;79.60;;;;;;5060569;28;20041;-81
2022/05/13 01:16:15;;;;;;;10.48;1.80;;;10.70;79.60;;;;;;5064240;28;20062;-81
2022/05/13 01:18:43;;;;;;;11.18;2.00;;;10.70;79.90;;;;;;5030296;28;20396;-81
2022/05/13 01:21:18;;;;;;;14.48;2.33;;;10.60;80.00;;;;;;5052709;28;20057;-82
2022/05/13 01:23:46;;;;;;;14.25;2.60;;;10.60;80.10;;;;;;5051389;28;20054;-80
2022/05/13 01:26:17;;;;;;;9.50;1.60;;;10.60;80.40;;;;;;5023724;28;20044;-82
2022/05/13 01:28:49;;;;;;;13.20;2.13;;;10.50;80.40;;;;;;5048783;28;20048;-81
2022/05/13 01:31:32;;;;;;;10.85;2.25;;;10.50;80.50;;;;;;5047936;28;20486;-81
2022/05/13 01:34:03;;;;;;;14.93;2.47;;;10.50;80.60;;;;;;5050976;28;20053;-81
2022/05/13 01:36:31;;;;;;;12.23;2.10;;;10.40;80.70;;;;;;5051298;28;20482;-81
2022/05/13 01:38:59;;;;;;;19.88;2.72;;;10.30;80.70;;;;;;5046970;28;20049;-81
2022/05/13 01:41:28;;;;;;;17.08;2.13;;;10.30;81.00;;;;;;5049731;28;20044;-81
2022/05/13 01:43:56;;;;;;;17.45;2.53;;;10.30;81.30;;;;;;5050756;28;20525;-81
2022/05/13 01:46:24;;;;;;;9.23;2.15;;;10.20;81.30;;;;;;5045562;28;20431;-81
2022/05/13 01:48:52;;;;;;;14.63;2.45;;;10.10;81.50;;;;;;5032606;28;20043;-81
2022/05/13 01:51:21;;;;;;;9.63;2.03;;;10.10;81.60;;;;;;5030280;28;20045;-81
2022/05/13 01:53:49;;;;;;;10.93;2.40;;;10.10;81.70;;;;;;5045300;28;20057;-82
2022/05/13 01:56:17;;;;;;;10.65;2.08;;;10.10;81.80;;;;;;5055845;28;20053;-81
2022/05/13 01:58:45;;;;;;;14.57;2.50;;;10.10;82.00;;;;;;5049608;28;20044;-81
2022/05/13 02:01:13;;;;;;;10.02;2.13;;;10.10;81.90;;;;;;5045470;28;20049;-81
2022/05/13 02:03:46;;;;;;;13.73;2.55;;;10.10;81.90;;;;;;5036234;28;20040;-82
2022/05/13 02:06:25;;;;;;;14.05;2.67;;;10.20;81.90;;;;;;5038523;28;20045;-81
2022/05/13 02:08:57;;;;;;;13.93;2.50;;;10.10;81.90;;;;;;5045782;28;20048;-81
2022/05/13 02:11:28;;;;;;;19.47;3.10;;;10.20;81.90;;;;;;5044351;28;20771;-82
2022/05/13 02:13:56;;;;;;;15.23;2.40;;;10.20;82.00;;;;;;5032852;28;20366;-82
2022/05/13 02:16:24;;;;;;;15.25;2.65;;;10.20;82.00;;;;;;5050152;28;20284;-82
2022/05/13 02:18:51;;;;;;;12.82;2.17;;;10.30;82.00;;;;;;5046766;28;20415;-82
2022/05/13 02:21:19;;;;;;;20.58;2.72;;;10.30;81.90;;;;;;5046787;28;20064;-82
2022/05/13 02:23:47;;;;;;;11.65;1.92;;;10.30;81.80;;;;;;5049269;28;20049;-82
2022/05/13 02:26:17;;;;;;;18.60;2.38;;;10.40;81.70;;;;;;5049735;28;20391;-82
2022/05/13 02:28:45;;;;;;;13.93;2.78;;;10.50;81.60;;;;;;5044848;28;20053;-82
2022/05/13 02:31:13;;;;;;;13.23;2.25;;;10.50;81.60;;;;;;5045988;28;20041;-82
2022/05/13 02:33:42;;;;;;;7.88;2.00;;;10.50;81.60;;;;;;5047130;28;20048;-81
2022/05/13 02:36:11;;;;;;;8.10;1.42;;;10.50;81.50;;;;;;5050763;28;20053;-82
2022/05/13 02:38:40;;;;;;;9.27;1.40;;;10.60;81.40;;;;;;5048283;28;20045;-81
2022/05/13 02:41:14;;;;;;;15.52;2.30;;;10.60;81.20;;;;;;5046275;28;20057;-81
2022/05/13 02:43:42;;;;;;;14.68;2.15;;;10.70;81.10;;;;;;5048383;28;20073;-81
2022/05/13 02:46:12;;;;;;;12.45;2.63;;;10.70;81.00;;;;;;5043582;28;20053;-80
2022/05/13 02:48:40;;;;;;;14.00;2.03;;;10.70;81.00;;;;;;5047839;28;20394;-82
2022/05/13 02:51:07;;;;;;;14.70;2.33;;;10.70;81.10;;;;;;5026224;28;20060;-81
2022/05/13 02:53:35;;;;;;;14.27;2.58;;;10.70;80.90;;;;;;5048648;28;20045;-82
2022/05/13 02:56:03;;;;;;;10.18;2.28;;;10.70;80.90;;;;;;5029191;28;20041;-82
2022/05/13 02:58:31;;;;;;;14.98;2.35;;;10.80;80.90;;;;;;5027479;28;20063;-81
2022/05/13 03:00:58;;;;;;;10.90;2.25;;;10.70;80.90;;;;;;5051510;28;20068;-82
2022/05/13 03:03:34;;;;;;;12.05;2.38;;;10.80;80.90;;;;;;5041969;28;20499;-82
2022/05/13 03:06:01;;;;;;;13.98;2.60;;;10.80;80.90;;;;;;5050284;28;20498;-81
2022/05/13 03:08:29;;;;;;;16.83;2.85;;;10.80;81.00;;;;;;5035186;28;20057;-82
2022/05/13 03:10:57;;;;;;;14.05;2.33;;;10.80;81.10;;;;;;5052575;28;20049;-81
2022/05/13 03:13:25;;;;;;;9.95;1.85;;;10.80;80.90;;;;;;5032526;28;20143;-81
2022/05/13 03:15:52;;;;;;;10.00;1.73;;;10.80;81.10;;;;;;5047717;28;20045;-81
2022/05/13 03:18:20;;;;;;;13.80;2.28;;;10.80;81.10;;;;;;5047749;28;20052;-81
2022/05/13 03:20:48;;;;;;;17.58;2.75;;;10.80;81.00;;;;;;5036835;28;20064;-81
2022/05/13 03:23:16;;;;;;;7.95;2.10;;;10.80;81.00;;;;;;5043760;28;20033;-81
2022/05/13 03:25:43;;;;;;;12.27;2.70;;;10.80;81.10;;;;;;5067844;28;20037;-82
2022/05/13 03:28:11;;;;;;;8.77;1.63;;;10.80;81.30;;;;;;5049938;28;20041;-82
2022/05/13 03:30:38;;;;;;;18.65;2.60;;;10.80;81.50;;;;;;5051066;28;20041;-81
2022/05/13 03:33:06;;;;;;;21.38;2.40;;;10.80;81.50;;;;;;5048597;28;20053;-82
2022/05/13 03:35:34;;;;;;;8.90;2.28;;;10.80;81.60;;;;;;5053152;28;20033;-82
2022/05/13 03:38:01;;;;;;;16.63;2.70;;;10.80;81.60;;;;;;5031090;28;20490;-82
2022/05/13 03:40:29;;;;;;;11.45;2.20;;;10.70;81.70;;;;;;5035628;28;20045;-82
2022/05/13 03:42:57;;;;;;;16.20;3.15;;;10.70;81.90;;;;;;5053535;28;20064;-81
2022/05/13 03:45:26;;;;;;;15.10;2.67;;;10.70;82.00;;;;;;5052563;28;20509;-82
2022/05/13 03:47:54;;;;;;;15.70;2.85;;;10.60;82.10;;;;;;5048920;28;20382;-82
2022/05/13 03:50:22;;;;;;;19.90;2.75;;;10.60;82.30;;;;;;5047518;28;20512;-82
2022/05/13 03:52:49;;;;;;;12.82;2.35;;;10.60;82.40;;;;;;5046978;28;20533;-82
2022/05/13 03:55:17;;;;;;;13.18;2.55;;;10.60;82.40;;;;;;5047867;28;20048;-82
2022/05/13 03:57:45;;;;;;;13.52;3.03;;;10.60;82.40;;;;;;5045898;28;20049;-82
2022/05/13 04:00:13;;;;;;;18.90;3.05;;;10.70;82.40;;;;;;5025900;28;20044;-81
2022/05/13 04:02:42;;;;;;;10.65;2.30;;;10.60;82.30;;;;;;5047493;28;20045;-82
2022/05/13 04:10:48;;;;;;;13.95;2.72;;;10.70;82.00;;;;;;5055539;28;20049;-82
2022/05/13 04:16:06;;;;;;;11.27;3.03;;;10.70;81.70;;;;;;5056366;28;20045;-82
2022/05/13 04:18:37;;;;;;;21.92;3.22;;;10.70;81.70;;;;;;5055122;28;20049;-81
2022/05/13 04:21:10;;;;;;;15.02;3.22;;;10.70;81.90;;;;;;5055758;28;20048;-81
2022/05/13 04:23:40;;;;;;;20.88;3.13;;;10.60;81.80;;;;;;5054813;28;20049;-82
2022/05/13 04:26:12;;;;;;;12.25;2.70;;;10.60;81.60;;;;;;5055033;28;20400;-82
2022/05/13 04:28:44;;;;;;;15.70;2.45;;;10.70;81.60;;;;;;5054272;28;20053;-82
2022/05/13 04:31:13;;;;;;;18.23;3.07;;;10.70;81.20;;;;;;5055855;28;20052;-82
2022/05/13 04:33:41;;;;;;;15.25;2.70;;;10.70;81.00;;;;;;5054321;28;20300;-81
2022/05/13 04:36:09;;;;;;;15.75;2.40;;;10.70;80.80;;;;;;5040180;28;20048;-82
2022/05/13 04:38:37;;;;;;;16.80;3.78;;;10.70;80.20;;;;;;5034040;28;20068;-82
2022/05/13 04:43:53;;;;;;;15.23;2.80;;;10.80;78.60;;;;;;5050473;28;20371;-81
2022/05/13 04:46:21;;;;;;;7.40;2.33;;;10.80;78.30;;;;;;5034049;28;20064;-83
2022/05/13 04:48:49;;;;;;;23.30;3.58;;;10.80;78.20;;;;;;5050052;28;20049;-81
2022/05/13 04:51:20;;;;;;;14.82;2.55;;;10.80;78.00;;;;;;5050719;28;20069;-82
2022/05/13 04:53:50;;;;;;;20.63;2.80;;;10.80;77.90;;;;;;5049600;28;20048;-81
2022/05/13 04:56:20;;;;;;;13.07;2.42;;;10.80;77.80;;;;;;5051599;28;20410;-81
2022/05/13 04:58:48;;;;;;;8.95;2.38;;;10.80;77.80;;;;;;5050664;28;20048;-81
2022/05/13 05:01:17;;;;;;;13.30;2.72;;;10.80;77.60;;;;;;5030394;28;20049;-82
2022/05/13 05:03:46;;;;;;;16.13;2.90;;;10.80;77.80;;;;;;5055745;28;20037;-80
2022/05/13 05:06:15;;;;;;;11.85;2.58;;;10.70;77.80;;;;;;5049194;28;20048;-80
2022/05/13 05:08:43;;;;;;;11.68;2.00;;;10.80;77.60;;;;;;5050204;28;20045;-80
2022/05/13 05:11:12;;;;;;;15.55;3.10;;;10.80;77.70;;;;;;5051905;28;20122;-81
2022/05/13 05:13:43;;;;;;;17.30;3.00;;;10.70;77.80;;;;;;5051290;28;20413;-81
2022/05/13 05:16:12;;;;;;;20.10;3.10;;;10.70;77.90;;;;;;5053678;28;20052;-82
2022/05/13 05:18:41;;;;;;;17.23;2.95;;;10.70;78.00;;;;;;5056103;28;20045;-81
2022/05/13 05:21:09;;;;;;;13.10;2.58;;;10.70;78.00;;;;;;5067564;28;20045;-82
2022/05/13 05:23:40;;;;;;;15.13;2.95;;;10.70;78.10;;;;;;5059267;28;20045;-82
2022/05/13 05:26:08;;;;;;;20.70;3.17;;;10.70;78.20;;;;;;5054303;28;20055;-81
2022/05/13 05:28:38;;;;;;;10.70;2.25;;;10.60;78.20;;;;;;5054480;28;20067;-81
2022/05/13 05:31:07;;;;;;;12.90;2.80;;;10.60;78.50;;;;;;5051969;28;20407;-82
2022/05/13 05:33:35;;;;;;;15.15;3.53;;;10.60;78.90;;;;;;5048120;28;20060;-82
2022/05/13 05:36:05;;;;;;;15.38;3.17;;;10.50;78.90;;;;;;5056182;28;20060;-82
2022/05/13 05:38:32;;;;;;;22.60;4.18;;;10.60;79.30;;;;;;5054853;28;20049;-82
2022/05/13 05:41:01;;;;;;;14.65;2.88;;;10.60;79.50;;;;;;5060752;28;20052;-82
2022/05/13 05:43:29;;;;;;;15.27;3.20;;;10.50;79.70;;;;;;5072131;28;20032;-84
2022/05/13 05:45:58;;;;;;;22.52;3.78;;;10.50;79.90;;;;;;5076046;28;20056;-86
2022/05/13 05:48:27;;;;;;;17.38;3.30;;;10.50;79.90;;;;;;5061836;28;20051;-83
2022/05/13 05:50:58;;;;;;;34.15;5.93;;;10.50;80.20;;;;;;5040486;28;20049;-83
2022/05/13 05:59:04;;;;;;;19.45;3.67;;;10.60;80.40;;;;;;5057679;28;20049;-83
2022/05/13 06:01:32;;;;;;;21.50;4.43;;;10.70;80.30;;;;;;5053972;28;20056;-83
2022/05/13 06:03:59;;;;;;;20.00;3.63;;;10.70;80.20;;;;;;5049146;28;20048;-83
2022/05/13 06:06:27;;;;;;;23.95;3.92;;;10.70;80.10;;;;;;5048372;28;20044;-83
2022/05/13 06:08:57;;;;;;;17.50;3.50;;;10.80;80.20;;;;;;5048071;28;20498;-83
2022/05/13 06:11:25;;;;;;;25.67;4.07;;;10.80;80.10;;;;;;5049577;28;20513;-83
2022/05/13 06:13:57;;;;;;;17.77;3.13;;;10.90;79.90;;;;;;5044105;28;20041;-83
2022/05/13 06:16:27;;;;;;;16.63;3.28;;;11.00;79.50;;;;;;5047230;28;20486;-83
2022/05/13 06:18:58;;;;;;;20.88;3.33;;;11.00;79.40;;;;;;5047377;28;20052;-83
2022/05/13 06:21:26;;;;;;;16.42;3.38;;;11.10;79.20;;;;;;5031784;28;20064;-83
2022/05/13 06:23:54;;;;;;;19.60;3.33;;;11.10;79.10;;;;;;5033191;28;20049;-83
2022/05/13 06:26:22;;;;;;;32.00;3.67;;;11.20;78.90;;;;;;5052554;28;20041;-83
2022/05/13 06:28:50;;;;;;;16.05;2.15;;;11.20;78.90;;;;;;5042636;28;20297;-83
2022/05/13 06:31:20;;;;;;;6.38;1.55;;;11.20;78.90;;;;;;5051701;28;20091;-82
2022/05/13 06:33:48;;;;;;;16.08;3.00;;;11.30;78.60;;;;;;5032501;28;20072;-84
2022/05/13 06:36:16;;;;;;;15.07;3.28;;;11.30;77.90;;;;;;5049015;28;20041;-83
2022/05/13 06:38:44;;;;;;;12.80;2.90;;;11.30;77.70;;;;;;5037925;28;20067;-83
2022/05/13 06:41:11;;;;;;;8.70;1.70;;;11.40;77.30;;;;;;5053166;28;20052;-83
2022/05/13 06:43:39;;;;;;;21.45;3.70;;;11.50;77.30;;;;;;5046484;28;20044;-83
2022/05/13 06:46:07;;;;;;;19.38;2.60;;;11.50;77.00;;;;;;5040448;28;20049;-84
2022/05/13 06:48:34;;;;;;;11.73;1.95;;;11.50;77.00;;;;;;5055084;28;20048;-83
2022/05/13 06:51:02;;;;;;;14.23;3.25;;;11.60;76.50;;;;;;5068204;28;21073;-83
2022/05/13 06:53:30;;;;;;;15.95;3.08;;;11.60;76.40;;;;;;5056047;28;20527;-83
2022/05/13 06:55:58;;;;;;;22.75;3.35;;;11.70;76.40;;;;;;5034931;28;20045;-84
2022/05/13 06:58:27;;;;;;;17.27;2.97;;;11.80;76.00;;;;;;5051598;28;20057;-83
2022/05/13 07:00:55;;;;;;;23.38;3.42;;;11.80;75.90;;;;;;5052934;28;20033;-84
2022/05/13 07:03:23;;;;;;;14.13;2.78;;;11.90;75.00;;;;;;5058617;28;20040;-83
2022/05/13 07:05:50;;;;;;;18.85;2.95;;;12.00;75.00;;;;;;5039831;28;20043;-84
2022/05/13 07:08:18;;;;;;;26.27;4.32;;;12.10;74.80;;;;;;5058695;28;20051;-84
2022/05/13 07:10:46;;;;;;;21.60;3.08;;;12.20;74.30;;;;;;5046001;28;20033;-83
2022/05/13 07:13:15;;;;;;;24.85;3.63;;;12.30;74.00;;;;;;5050354;28;20048;-83
2022/05/13 07:15:43;;;;;;;11.48;2.30;;;12.40;74.00;;;;;;5054020;28;20119;-84
2022/05/13 07:18:12;;;;;;;32.45;3.03;;;12.40;73.70;;;;;;5068443;28;20059;-85
2022/05/13 07:20:41;;;;;;;24.27;3.13;;;12.50;73.00;;;;;;5051559;28;20052;-83
2022/05/13 07:23:08;;;;;;;23.10;2.55;;;12.40;73.20;;;;;;5041842;28;20410;-83
2022/05/13 07:25:36;;;;;;;18.13;3.03;;;12.40;73.60;;;;;;5044425;28;20068;-83
2022/05/13 07:28:04;;;;;;;13.20;2.58;;;12.40;73.40;;;;;;5048602;28;20053;-83
2022/05/13 07:30:32;;;;;;;22.60;3.95;;;12.40;73.30;;;;;;5050171;28;20538;-83
2022/05/13 07:32:59;;;;;;;22.58;4.22;;;12.30;73.50;;;;;;5035243;28;20037;-83
2022/05/13 07:35:27;;;;;;;20.27;3.45;;;12.40;73.70;;;;;;5053026;28;20056;-84
2022/05/13 07:37:54;;;;;;;31.83;3.53;;;12.40;74.10;;;;;;5053569;28;20045;-83
2022/05/13 07:43:08;;;;;;;27.02;3.83;;;12.30;74.00;;;;;;5061759;28;20451;-84
2022/05/13 07:45:36;;;;;;;23.42;3.65;;;12.30;73.90;;;;;;5042415;28;20041;-83
2022/05/13 07:48:04;;;;;;;22.63;3.17;;;12.30;74.10;;;;;;5056138;28;20041;-83
2022/05/13 07:50:32;;;;;;;28.75;3.40;;;12.30;74.20;;;;;;5053687;28;20052;-83
2022/05/13 07:53:00;;;;;;;17.60;3.53;;;12.40;73.90;;;;;;5052703;28;20510;-83
2022/05/13 07:55:28;;;;;;;19.02;3.20;;;12.40;73.50;;;;;;5052949;28;20060;-83
2022/05/13 07:57:56;;;;;;;24.75;3.78;;;12.50;73.40;;;;;;5035739;28;20049;-83
2022/05/13 08:00:25;;;;;;;28.27;3.20;;;12.50;73.40;;;;;;5054325;28;20060;-82
2022/05/13 08:03:14;;;;;;;18.50;3.08;;;12.60;73.10;;;;;;5051675;28;20056;-82
2022/05/13 08:05:45;;;;;;;19.75;2.95;;;12.60;73.00;;;;;;5055788;28;20065;-83
2022/05/13 08:08:15;;;;;;;29.75;3.78;;;12.80;72.70;;;;;;5038304;28;20045;-83
2022/05/13 08:10:47;;;;;;;16.23;2.97;;;12.80;72.90;;;;;;5048864;28;20399;-83
2022/05/13 08:13:14;;;;;;;19.52;3.78;;;12.80;72.10;;;;;;5052882;28;20501;-83
2022/05/13 08:15:43;;;;;;;17.02;2.92;;;12.80;71.10;;;;;;5034478;28;20047;-83
2022/05/13 08:18:11;;;;;;;21.92;2.67;;;12.80;71.40;;;;;;5052633;28;20048;-82
2022/05/13 08:20:43;;;;;;;16.52;3.00;;;12.80;70.90;;;;;;5052836;28;20522;-82
2022/05/13 08:23:11;;;;;;;17.63;2.78;;;12.80;70.40;;;;;;5052267;28;20041;-82
2022/05/13 08:25:39;;;;;;;19.38;2.67;;;12.90;70.50;;;;;;5052463;28;20057;-83
2022/05/13 08:28:08;;;;;;;13.20;2.05;;;12.90;70.40;;;;;;5051379;28;20048;-83
2022/05/13 08:30:37;;;;;;;18.40;2.45;;;13.00;68.90;;;;;;5052924;28;20045;-83
2022/05/13 08:33:08;;;;;;;16.27;1.90;;;13.20;68.60;;;;;;5054311;28;20045;-82
2022/05/13 08:35:39;;;;;;;15.63;2.90;;;13.30;67.10;;;;;;5070777;28;20037;-82
2022/05/13 08:38:08;;;;;;;13.30;2.72;;;13.40;67.20;;;;;;5053135;28;20052;-83
2022/05/13 08:40:59;;;;;;;21.65;2.83;;;13.50;67.70;;;;;;5033224;28;20053;-83
2022/05/13 08:43:36;;;;;;;31.38;3.00;;;13.70;68.00;;;;;;5052257;28;20037;-82
2022/05/13 08:46:16;;;;;;;16.45;2.75;;;13.80;67.00;;;;;;5034753;28;20397;-83
2022/05/13 08:49:02;;;;;;;22.30;3.35;;;13.80;67.00;;;;;;5035685;28;20037;-82
2022/05/13 08:53:06;;;;;;;13.65;2.53;;;13.90;66.50;;;;;;5045493;28;20052;-83
2022/05/13 08:54:59;;;;;;;12.52;2.63;;;14.00;66.00;;;;;;5055365;28;20048;-83
2022/05/13 08:57:31;;;;;;;21.70;3.20;;;14.20;65.90;;;;;;5056068;28;20040;-85
2022/05/13 09:00:04;;;;;;;18.95;2.80;;;14.30;66.00;;;;;;5041588;28;20037;-83
2022/05/13 09:02:47;;;;;;;27.23;3.53;;;14.50;65.70;;;;;;5038188;28;20059;-84
2022/05/13 09:06:07;;;;;;;15.10;2.53;;;14.60;65.60;;;;;;5038111;28;20048;-82
2022/05/13 09:08:44;;;;;;;20.15;2.58;;;14.80;63.90;;;;;;4944428;29;20581;-83
2022/05/13 09:11:35;;;;;;;10.48;1.98;;;14.80;63.80;;;;;;4955775;29;20047;-84
2022/05/13 09:14:14;;;;;;;11.95;2.50;;;14.90;62.30;;;;;;4966168;29;20058;-78
2022/05/13 09:17:04;;;;;;;11.95;2.35;;;14.90;62.40;;;;;;4958919;29;20062;-86
2022/05/13 09:19:46;;;;;;;14.85;2.17;;;15.00;61.50;;;;;;4954914;29;20051;-83
2022/05/13 09:22:13;;;;;;;15.23;2.70;;;15.00;62.50;;;;;;4954282;28;20095;-81
2022/05/13 09:24:42;;;;;;;16.30;2.35;;;15.00;62.60;;;;;;4937621;29;20050;-77
2022/05/13 09:27:46;;;;;;;17.58;3.05;;;15.00;62.00;;;;;;4936086;29;20055;-79
2022/05/13 09:30:20;;;;;;;18.05;3.42;;;14.80;62.20;;;;;;4954752;28;20051;-82
2022/05/13 09:32:48;;;;;;;23.92;3.55;;;14.80;63.00;;;;;;4963372;28;20055;-83
2022/05/13 09:35:35;;;;;;;19.38;2.85;;;14.80;63.50;;;;;;4939836;28;20065;-82
2022/05/13 09:38:27;;;;;;;25.02;3.00;;;15.00;62.70;;;;;;4958896;28;20128;-84
2022/05/13 09:41:04;;;;;;;14.75;2.67;;;15.00;62.30;;;;;;4974308;28;20058;-83
2022/05/13 09:43:38;;;;;;;17.08;2.78;;;15.10;62.80;;;;;;4984747;28;20049;-83
2022/05/13 09:46:20;;;;;;;20.75;2.13;;;15.30;61.30;;;;;;5039271;28;20045;-81
2022/05/13 09:48:56;;;;;;;6.30;1.60;;;15.40;60.30;;;;;;5026304;28;20518;-82
2022/05/13 09:51:30;;;;;;;8.60;1.63;;;15.30;59.20;;;;;;5021187;28;20068;-80
2022/05/13 09:54:06;;;;;;;19.80;2.30;;;15.30;59.00;;;;;;5040422;28;20049;-83
2022/05/13 09:56:48;;;;;;;12.85;1.60;;;15.20;59.50;;;;;;5047516;28;20053;-81
2022/05/13 09:59:25;;;;;;;14.68;2.53;;;15.10;59.60;;;;;;5040274;28;20071;-80
2022/05/13 10:01:53;;;;;;;9.38;1.95;;;15.10;59.70;;;;;;5035751;28;20482;-83
2022/05/13 10:04:24;;;;;;;22.85;2.38;;;15.30;59.00;;;;;;5037607;28;20167;-82
2022/05/13 10:07:08;;;;;;;8.02;1.58;;;15.40;59.00;;;;;;5038058;28;20056;-80
2022/05/13 10:15:42;;;;;;;14.80;2.10;;;15.60;58.20;;;;;;5035247;28;20045;-82
2022/05/13 10:18:29;;;;;;;22.00;2.40;;;15.60;59.10;;;;;;5017108;28;20499;-81
2022/05/13 10:21:13;;;;;;;11.63;1.90;;;15.70;60.20;;;;;;5034430;28;20057;-82
2022/05/13 10:23:46;;;;;;;;;;;16.00;59.00;;;;;;5040357;28;20064;-83
2022/05/13 10:26:20;;;;;;;15.23;1.23;;;16.20;57.80;;;;;;5075193;28;20300;-83
2022/05/13 10:29:39;;;;;;;12.30;2.17;;;16.30;56.80;;;;;;5057069;28;20047;-83
2022/05/13 10:32:32;;;;;;;18.10;3.08;;;16.20;57.20;;;;;;5012990;28;20056;-81
2022/05/13 10:35:07;;;;;;;13.68;2.63;;;16.10;57.10;;;;;;5046199;28;20064;-82
2022/05/13 10:37:53;;;;;;;11.30;2.58;;;16.00;57.00;;;;;;5054033;28;20509;-81
2022/05/13 10:40:22;;;;;;;17.52;2.15;;;16.10;57.30;;;;;;5036292;28;20048;-81
2022/05/13 10:43:10;;;;;;;17.60;2.35;;;16.00;56.40;;;;;;5053473;28;20281;-82
2022/05/13 10:45:41;;;;;;;11.70;2.28;;;15.80;57.80;;;;;;5035332;28;20048;-82
2022/05/13 10:48:13;;;;;;;8.95;1.45;;;15.80;58.50;;;;;;5035762;28;20386;-82
2022/05/13 10:51:02;;;;;;;13.27;2.72;;;15.90;57.00;;;;;;5053292;28;20053;-82
2022/05/13 10:53:51;;;;;;;9.15;1.95;;;16.00;56.20;;;;;;5052335;28;20041;-82
2022/05/13 10:56:21;;;;;;;16.45;2.42;;;15.90;57.10;;;;;;5052170;28;20052;-82
2022/05/13 10:59:20;;;;;;;16.67;2.20;;;16.10;55.50;;;;;;5052972;28;20037;-82
2022/05/13 11:02:12;;;;;;;3.45;0.93;;;16.20;56.60;;;;;;5048783;28;20063;-84
2022/05/13 11:04:46;;;;;;;6.80;1.45;;;16.40;54.30;;;;;;5053375;28;20049;-83
2022/05/13 11:08:00;;;;;;;14.82;2.45;;;16.30;53.70;;;;;;5018800;28;20300;-83
2022/05/13 11:11:05;;;;;;;5.90;0.95;;;16.40;55.00;;;;;;5062814;28;20045;-83
2022/05/13 11:14:06;;;;;;;13.50;2.45;;;16.60;54.70;;;;;;5058419;28;20045;-83
2022/05/13 11:16:49;;;;;;;19.33;2.40;;;16.80;54.00;;;;;;5035305;28;20049;-85
2022/05/13 11:19:23;;;;;;;14.32;2.15;;;16.90;53.50;;;;;;5052602;28;20509;-84
2022/05/13 11:22:11;;;;;;;;;;;16.90;52.80;;;;;;5054565;28;20049;-84
2022/05/13 11:28:21;;;;;;;20.13;2.67;;;16.90;53.10;;;;;;5027807;28;20502;-84
2022/05/13 11:31:16;;;;;;;6.82;1.88;;;16.90;53.70;;;;;;5053597;28;20044;-83
2022/05/13 11:34:41;;;;;;;22.85;2.67;;;16.90;53.60;;;;;;5052156;28;20048;-84
2022/05/13 11:37:15;;;;;;;9.95;2.35;;;17.00;55.00;;;;;;4988324;28;20054;-85
2022/05/13 11:40:14;;;;;;;8.18;1.33;;;17.00;54.90;;;;;;4989354;28;20538;-83
2022/05/13 11:43:18;;;;;;;15.50;2.65;;;17.10;54.30;;;;;;4973808;28;20054;-83
2022/05/13 11:46:00;;;;;;;11.60;1.92;;;17.30;54.90;;;;;;4982048;28;20042;-83
2022/05/13 11:48:31;;;;;;;8.77;1.80;;;17.40;55.20;;;;;;4991136;28;20054;-84
2022/05/13 11:51:09;;;;;;;9.85;2.28;;;17.60;53.80;;;;;;4988859;28;20050;-84
2022/05/13 11:53:51;;;;;;;7.10;1.60;;;17.60;51.70;;;;;;4991447;28;20049;-83
2022/05/13 11:56:30;;;;;;;13.10;2.10;;;17.30;51.80;;;;;;4978937;28;20063;-83
2022/05/13 11:59:11;;;;;;;10.30;1.65;;;17.20;52.50;;;;;;4994641;28;20113;-85
2022/05/13 12:01:45;;;;;;;19.90;1.55;;;17.10;53.10;;;;;;4962464;28;20046;-83
2022/05/13 12:04:13;;;;;;;6.97;1.77;;;17.10;54.60;;;;;;4973588;28;20089;-81
2022/05/13 12:06:50;;;;;;;13.85;2.22;;;17.50;54.40;;;;;;4997089;28;20120;-85
2022/05/13 12:09:29;;;;;;;32.78;3.88;;;17.80;52.10;;;;;;5035903;28;20399;-85
2022/05/13 12:12:24;;;;;;;19.20;2.20;;;18.00;52.40;;;;;;5002764;28;20049;-85
2022/05/13 12:15:18;;;;;;;7.22;1.65;;;18.30;51.60;;;;;;5032408;28;20495;-87
2022/05/13 12:17:58;;;;;;;22.15;3.00;;;18.20;50.80;;;;;;5032629;28;20446;-90
2022/05/13 12:20:45;;;;;;;16.33;2.15;;;18.10;52.00;;;;;;5016008;28;20394;-89
2022/05/13 12:23:25;;;;;;;8.80;2.05;;;18.20;50.80;;;;;;5017383;28;20068;-87
2022/05/13 12:26:19;;;;;;;11.50;2.08;;;18.20;52.50;;;;;;5035974;28;20513;-82
2022/05/13 12:28:56;;;;;;;8.55;1.30;;;18.30;50.70;;;;;;5004802;28;20049;-86
2022/05/13 12:31:34;;;;;;;5.97;1.98;;;18.30;50.20;;;;;;5017219;28;20421;-83
2022/05/13 12:39:54;;;;;;;3.65;1.50;;;17.60;52.20;;;;;;5017497;28;20049;-82
2022/05/13 12:42:44;;;;;;;7.22;1.88;;;17.80;51.70;;;;;;5035101;28;20045;-82
2022/05/13 12:45:20;;;;;;;11.48;2.20;;;17.60;52.00;;;;;;5036556;28;20052;-83
2022/05/13 12:48:04;;;;;;;11.50;1.90;;;17.40;52.10;;;;;;5018301;28;20424;-83
2022/05/13 12:51:09;;;;;;;16.17;2.60;;;17.30;53.40;;;;;;5050218;28;20197;-82
2022/05/13 12:53:50;;;;;;;19.27;2.55;;;17.40;53.80;;;;;;5056937;28;20540;-82
2022/05/13 12:56:43;;;;;;;11.02;2.17;;;17.80;53.60;;;;;;5061453;28;20045;-82
2022/05/13 12:59:24;;;;;;;8.07;1.23;;;18.10;52.10;;;;;;5062310;28;20057;-83
2022/05/13 13:01:56;;;;;;;20.88;2.80;;;18.50;50.30;;;;;;5043472;28;20297;-81
2022/05/13 13:04:29;;;;;;;16.17;2.60;;;18.80;49.90;;;;;;5039206;28;20041;-81
2022/05/13 13:07:07;;;;;;;12.57;2.75;;;19.00;49.40;;;;;;5056107;28;20036;-83
2022/05/13 13:09:42;;;;;;;11.07;2.08;;;19.10;47.90;;;;;;5055695;28;20049;-84
2022/05/13 13:12:33;;;;;;;6.93;1.85;;;18.80;48.40;;;;;;5037607;28;20057;-81
2022/05/13 13:15:25;;;;;;;6.32;1.48;;;18.60;48.70;;;;;;5056243;28;20044;-82
2022/05/13 13:18:07;;;;;;;6.38;1.38;;;18.70;48.20;;;;;;5023294;28;20053;-83
2022/05/13 13:20:54;;;;;;;18.55;2.72;;;18.80;48.10;;;;;;5045969;28;20426;-82
2022/05/13 13:23:22;;;;;;;11.10;2.47;;;19.30;48.60;;;;;;5054201;28;20425;-82
2022/05/13 13:25:52;;;;;;;31.42;3.55;;;19.70;46.90;;;;;;5055628;28;20037;-83
2022/05/13 13:28:28;;;;;;;;;;;19.90;46.30;;;;;;5019281;28;20052;-84
2022/05/13 13:31:02;;;;;;;19.48;3.90;;;20.10;45.80;;;;;;5034206;28;20381;-82
2022/05/13 13:33:34;;;;;;;10.50;1.90;;;20.00;47.00;;;;;;5030252;28;20045;-82
2022/05/13 13:36:14;;;;;;;10.00;2.03;;;20.30;45.60;;;;;;5053933;28;20052;-83
2022/05/13 13:38:50;;;;;;;12.82;2.65;;;20.30;45.20;;;;;;5053872;28;20048;-82
2022/05/13 13:41:26;;;;;;;13.48;2.00;;;20.30;46.10;;;;;;5075473;28;20044;-83
2022/05/13 13:43:56;;;;;;;19.08;4.03;;;20.50;45.70;;;;;;5058251;28;20048;-82
2022/05/13 13:46:34;;;;;;;15.18;2.83;;;20.60;46.50;;;;;;5024431;28;20510;-82
2022/05/13 13:49:05;;;;;;;27.60;3.50;;;20.80;45.00;;;;;;5055408;28;20053;-82